Time;durP1;ratioP1;P1;durP2;ratioP2;P2;SDS_P1;SDS_P2;PMS_P1;PMS_P2;Temp;Humidity;BMP_temperature;BMP_pressure;BME280_temperature;BME280_humidity;BME280_pressure;Samples;Min_cycle;Max_cycle;Signal;HPM_P1;HPM_P2
2021/06/03 00:00:22;;;;;;;4.85;3.80;;;;;;;16.87;63.59;101934.88;5019834;28;20103;-72
2021/06/03 00:02:49;;;;;;;4.88;3.70;;;;;;;16.80;63.83;101936.50;5020078;28;20112;-73
2021/06/03 00:05:24;;;;;;;4.90;4.15;;;;;;;16.76;64.81;101939.59;5003675;28;20089;-75
2021/06/03 00:07:51;;;;;;;4.65;4.05;;;;;;;16.71;64.38;101946.22;4987170;28;20046;-75
2021/06/03 00:10:19;;;;;;;4.70;3.65;;;;;;;16.70;64.84;101944.53;5012249;28;20454;-75
2021/06/03 00:12:45;;;;;;;8.95;4.13;;;;;;;16.68;65.79;101943.88;4991155;28;20055;-73
2021/06/03 00:15:13;;;;;;;6.07;3.85;;;;;;;16.65;64.74;101951.28;4989648;28;20483;-74
2021/06/03 00:17:39;;;;;;;6.22;4.03;;;;;;;16.63;65.19;101950.63;4987890;28;20033;-75
2021/06/03 00:20:12;;;;;;;6.35;3.85;;;;;;;16.56;65.00;101947.78;5006815;28;20034;-74
2021/06/03 00:22:37;;;;;;;6.63;4.15;;;;;;;16.53;64.76;101940.16;4990456;28;20045;-73
2021/06/03 00:25:05;;;;;;;4.78;4.20;;;;;;;16.54;65.20;101953.22;4984885;28;20415;-74
2021/06/03 00:27:30;;;;;;;7.82;4.15;;;;;;;16.54;65.14;101952.41;5000501;28;20755;-73
2021/06/03 00:29:58;;;;;;;6.13;3.88;;;;;;;16.53;64.94;101956.84;5002060;28;20079;-74
2021/06/03 00:32:24;;;;;;;4.80;4.07;;;;;;;16.47;65.62;101954.84;5008893;28;20048;-75
2021/06/03 00:34:50;;;;;;;5.93;3.72;;;;;;;16.42;65.17;101941.22;5010689;28;20458;-74
2021/06/03 00:37:15;;;;;;;5.13;4.05;;;;;;;16.37;65.77;101951.47;5017750;28;20034;-74
2021/06/03 00:39:41;;;;;;;4.32;3.92;;;;;;;16.41;65.46;101949.34;5017749;28;20037;-73
2021/06/03 00:42:06;;;;;;;4.85;4.20;;;;;;;16.38;65.70;101955.78;5022727;28;20038;-74
2021/06/03 00:44:32;;;;;;;5.55;4.18;;;;;;;16.31;66.05;101947.63;5013591;28;20048;-73
2021/06/03 00:46:58;;;;;;;4.85;4.10;;;;;;;16.33;66.23;101948.31;5003869;28;20044;-75
2021/06/03 00:49:24;;;;;;;6.53;4.20;;;;;;;16.25;65.88;101942.13;5009382;28;20801;-74
2021/06/03 00:51:50;;;;;;;9.32;4.25;;;;;;;16.25;66.11;101945.59;5019011;28;20038;-74
2021/06/03 00:54:16;;;;;;;4.88;4.28;;;;;;;16.19;66.16;101937.44;5015537;28;20056;-76
2021/06/03 00:56:42;;;;;;;5.57;3.85;;;;;;;16.15;66.22;101931.63;5001428;28;20242;-75
2021/06/03 00:59:10;;;;;;;5.57;3.85;;;;;;;16.24;66.00;101943.94;5011508;28;20037;-75
2021/06/03 01:01:36;;;;;;;10.02;3.80;;;;;;;16.29;65.40;101943.47;4976017;28;20034;-74
2021/06/03 01:04:01;;;;;;;8.60;4.20;;;;;;;16.28;65.77;101937.34;5016159;28;20070;-73
2021/06/03 01:06:29;;;;;;;5.00;4.40;;;;;;;16.31;65.74;101944.13;5005080;28;20029;-75
2021/06/03 01:09:02;;;;;;;5.80;4.20;;;;;;;16.27;65.64;101940.13;5020688;28;20037;-76
2021/06/03 01:11:33;;;;;;;4.25;3.85;;;;;;;16.24;66.08;101936.00;5014480;28;20044;-75
2021/06/03 01:14:11;;;;;;;5.65;4.18;;;;;;;16.19;66.41;101937.44;5010975;28;20030;-74
2021/06/03 01:16:37;;;;;;;4.60;4.20;;;;;;;16.10;66.79;101940.00;5008809;28;20026;-75
2021/06/03 01:19:11;;;;;;;6.03;3.92;;;;;;;16.02;66.77;101934.66;5005885;28;20406;-74
2021/06/03 01:21:56;;;;;;;4.47;3.90;;;;;;;16.09;66.48;101943.66;5022418;28;20029;-74
2021/06/03 01:24:31;;;;;;;7.20;4.20;;;;;;;16.06;67.26;101941.31;4991980;28;20439;-75
2021/06/03 01:27:28;;;;;;;8.02;4.30;;;;;;;16.09;66.56;101942.84;5006523;28;20053;-75
2021/06/03 01:30:19;;;;;;;4.68;4.25;;;;;;;16.07;66.40;101940.34;5011649;28;20499;-76
2021/06/03 01:32:53;;;;;;;5.60;4.10;;;;;;;16.08;66.78;101938.50;5015758;28;20041;-75
2021/06/03 01:35:23;;;;;;;4.50;4.03;;;;;;;16.01;67.26;101937.47;4993737;28;20040;-73
2021/06/03 01:37:51;;;;;;;4.85;4.15;;;;;;;15.97;67.22;101939.56;4998435;28;20033;-73
2021/06/03 01:40:20;;;;;;;6.65;4.10;;;;;;;15.93;66.63;101925.81;4979070;28;20061;-74
2021/06/03 01:42:48;;;;;;;4.80;4.07;;;;;;;15.99;66.63;101940.25;4987688;28;20045;-76
2021/06/03 01:45:15;;;;;;;5.70;4.07;;;;;;;16.00;66.50;101928.69;4977218;28;20047;-74
2021/06/03 01:47:55;;;;;;;5.90;4.15;;;;;;;15.98;66.72;101932.50;5120107;27;20133;-74
2021/06/03 01:50:23;;;;;;;12.07;4.15;;;;;;;15.93;66.66;101930.28;5104968;28;20027;-75
2021/06/03 01:52:55;;;;;;;4.65;3.85;;;;;;;15.93;66.58;101931.09;5070082;28;20036;-74
2021/06/03 01:55:22;;;;;;;5.75;4.10;;;;;;;15.93;66.92;101938.22;5074551;28;20043;-74
2021/06/03 01:57:48;;;;;;;6.47;4.00;;;;;;;15.95;66.66;101936.25;5051703;28;20055;-77
2021/06/03 02:00:24;;;;;;;4.60;4.15;;;;;;;15.92;66.87;101933.94;5055159;28;20504;-76
2021/06/03 02:02:53;;;;;;;4.38;3.97;;;;;;;15.82;67.56;101933.16;5104004;28;20066;-75
2021/06/03 02:05:23;;;;;;;8.95;4.18;;;;;;;15.76;67.57;101930.16;5073844;28;20032;-76
2021/06/03 02:07:50;;;;;;;4.60;4.13;;;;;;;15.76;67.92;101942.53;5088936;28;20409;-77
2021/06/03 02:10:17;;;;;;;7.10;4.00;;;;;;;15.77;67.21;101936.28;5101505;28;20051;-75
2021/06/03 02:12:59;;;;;;;9.52;4.13;;;;;;;15.81;67.19;101936.81;5083299;28;20032;-75
2021/06/03 02:15:29;;;;;;;7.03;3.97;;;;;;;15.73;67.53;101938.41;5081652;28;20032;-76
2021/06/03 02:17:59;;;;;;;7.47;4.20;;;;;;;15.70;67.71;101937.84;5080641;28;20036;-75
2021/06/03 02:20:35;;;;;;;5.13;4.00;;;;;;;15.66;68.01;101939.13;5069957;28;20581;-76
2021/06/03 02:23:01;;;;;;;4.47;3.67;;;;;;;15.67;67.95;101952.19;5084782;28;20517;-75
2021/06/03 02:25:28;;;;;;;6.85;4.20;;;;;;;15.62;68.04;101938.59;5090071;28;20043;-75
2021/06/03 02:27:55;;;;;;;7.50;3.90;;;;;;;15.63;68.12;101940.22;5094499;28;20043;-76
2021/06/03 02:30:24;;;;;;;5.18;3.63;;;;;;;15.54;68.57;101935.88;5084203;28;20032;-74
2021/06/03 02:32:51;;;;;;;5.57;4.10;;;;;;;15.54;68.60;101935.88;5089703;28;20407;-78
2021/06/03 02:35:18;;;;;;;5.63;4.45;;;;;;;15.53;68.61;101937.66;5085463;28;20054;-76
2021/06/03 02:37:48;;;;;;;6.03;4.03;;;;;;;15.47;68.71;101932.16;5085940;28;20469;-75
2021/06/03 02:40:19;;;;;;;5.18;4.03;;;;;;;15.49;68.61;101938.94;5086920;28;20056;-75
2021/06/03 02:42:48;;;;;;;6.55;3.97;;;;;;;15.51;68.39;101934.34;5091620;28;20095;-76
2021/06/03 02:45:22;;;;;;;5.15;4.15;;;;;;;15.54;68.25;101935.88;5078166;28;20036;-76
2021/06/03 02:47:48;;;;;;;9.10;3.92;;;;;;;15.48;68.44;101937.31;5087640;28;20115;-76
2021/06/03 02:50:16;;;;;;;7.20;4.72;;;;;;;15.46;68.63;101928.66;5083017;28;20028;-76
2021/06/03 02:52:44;;;;;;;6.38;4.50;;;;;;;15.44;68.79;101937.72;5050935;28;20029;-75
2021/06/03 02:55:13;;;;;;;4.72;4.07;;;;;;;15.44;69.06;101943.84;5070285;28;20027;-75
2021/06/03 02:57:39;;;;;;;6.35;4.20;;;;;;;15.37;69.78;101946.28;5082436;28;20036;-76
2021/06/03 03:00:10;;;;;;;6.35;4.65;;;;;;;15.35;69.30;101944.72;5072513;28;20040;-75
2021/06/03 03:02:36;;;;;;;5.10;4.60;;;;;;;15.41;69.19;101943.31;5068755;28;20036;-75
2021/06/03 03:05:04;;;;;;;12.48;4.55;;;;;;;15.38;69.95;101947.09;5073481;28;20044;-75
2021/06/03 03:07:32;;;;;;;8.93;4.45;;;;;;;15.33;69.98;101951.97;5083191;28;20441;-76
2021/06/03 03:09:58;;;;;;;6.18;4.97;;;;;;;15.32;70.22;101952.97;5080289;28;20036;-76
2021/06/03 03:12:25;;;;;;;6.65;4.55;;;;;;;15.26;70.50;101951.75;5083637;28;20032;-75
2021/06/03 03:14:51;;;;;;;4.88;4.43;;;;;;;15.25;70.64;101954.53;5069002;28;20050;-75
2021/06/03 03:17:19;;;;;;;8.25;4.68;;;;;;;15.19;71.48;101954.16;5079657;28;20023;-75
2021/06/03 03:19:45;;;;;;;9.07;4.78;;;;;;;15.20;71.11;101955.00;5087595;28;20032;-75
2021/06/03 03:22:11;;;;;;;5.38;4.78;;;;;;;15.13;71.12;101949.47;5068826;28;20111;-75
2021/06/03 03:24:37;;;;;;;9.85;4.75;;;;;;;15.18;70.95;101955.16;5081200;28;20101;-75
2021/06/03 03:27:04;;;;;;;6.60;4.80;;;;;;;15.19;70.91;101955.97;5051685;28;20188;-76
2021/06/03 03:29:30;;;;;;;5.95;4.53;;;;;;;15.22;70.73;101955.69;5066996;28;20036;-75
2021/06/03 03:31:55;;;;;;;5.60;5.00;;;;;;;15.22;70.95;101966.25;5077121;28;20043;-75
2021/06/03 03:34:23;;;;;;;5.05;4.47;;;;;;;15.17;71.11;101955.28;5081027;28;20029;-76
2021/06/03 03:36:49;;;;;;;7.75;5.00;;;;;;;15.23;71.00;101959.97;5051254;28;20490;-75
2021/06/03 03:39:16;;;;;;;8.88;5.07;;;;;;;15.18;71.41;101962.22;5084662;28;20040;-74
2021/06/03 03:41:42;;;;;;;6.78;4.75;;;;;;;15.24;70.88;101966.94;5062319;28;20551;-75
2021/06/03 03:44:08;;;;;;;7.25;4.65;;;;;;;15.28;71.10;101968.31;5073689;28;20048;-75
2021/06/03 03:46:36;;;;;;;6.78;4.75;;;;;;;15.32;70.94;101964.38;5067949;28;20028;-75
2021/06/03 03:49:03;;;;;;;7.07;4.80;;;;;;;15.31;71.14;101964.53;5070106;28;20040;-75
2021/06/03 03:51:29;;;;;;;7.18;5.03;;;;;;;15.33;71.04;101975.78;5058628;28;20639;-75
2021/06/03 03:53:57;;;;;;;6.30;5.10;;;;;;;15.31;70.80;101962.72;5049674;28;20036;-76
2021/06/03 03:56:23;;;;;;;7.47;5.47;;;;;;;15.34;70.85;101972.16;5076747;28;20028;-75
2021/06/03 03:58:50;;;;;;;6.10;4.80;;;;;;;15.39;70.54;101972.56;5084914;28;20441;-75
2021/06/03 04:01:17;;;;;;;6.70;5.35;;;;;;;15.42;70.80;101971.44;5057560;28;20115;-76
2021/06/03 04:03:45;;;;;;;5.97;4.72;;;;;;;15.44;70.49;101958.88;5046132;28;20054;-75
2021/06/03 04:06:13;;;;;;;7.88;5.43;;;;;;;15.49;70.25;101961.91;5077822;28;20029;-75
2021/06/03 04:08:39;;;;;;;8.05;5.10;;;;;;;15.54;70.02;101962.31;5070711;28;20051;-75
2021/06/03 04:11:06;;;;;;;7.35;5.07;;;;;;;15.54;70.26;101955.22;5085384;28;20111;-75
2021/06/03 04:13:37;;;;;;;7.82;5.63;;;;;;;15.56;70.46;101963.81;5070884;28;20886;-75
2021/06/03 04:16:06;;;;;;;8.38;4.93;;;;;;;15.56;70.53;101961.16;5038672;28;20489;-75
2021/06/03 04:18:33;;;;;;;6.38;4.93;;;;;;;15.57;69.63;101964.63;5079371;28;20496;-77
2021/06/03 04:20:59;;;;;;;7.57;4.50;;;;;;;15.55;70.73;101966.59;5074401;28;20036;-75
2021/06/03 04:23:25;;;;;;;6.68;4.53;;;;;;;15.57;70.78;101967.28;5072370;28;20090;-75
2021/06/03 04:25:51;;;;;;;5.70;4.82;;;;;;;15.57;70.65;101969.94;5083474;28;20032;-75
2021/06/03 04:28:16;;;;;;;6.45;4.93;;;;;;;15.65;70.29;101980.63;5066822;28;20404;-75
2021/06/03 04:30:42;;;;;;;6.53;5.07;;;;;;;15.71;70.40;101968.59;5045222;28;20115;-75
2021/06/03 04:33:09;;;;;;;8.23;5.28;;;;;;;15.81;70.46;101973.84;5071254;28;20127;-75
2021/06/03 04:35:35;;;;;;;8.32;5.15;;;;;;;15.82;69.85;101978.97;5062660;28;20078;-76
2021/06/03 04:38:02;;;;;;;8.73;5.32;;;;;;;15.89;69.16;101974.72;5067895;28;20513;-75
2021/06/03 04:40:29;;;;;;;7.05;5.35;;;;;;;15.84;69.33;101971.72;5075943;28;20075;-75
2021/06/03 04:42:56;;;;;;;11.88;5.70;;;;;;;15.81;69.05;101979.97;5068418;28;20064;-75
2021/06/03 04:45:22;;;;;;;7.00;5.20;;;;;;;15.77;70.12;101989.19;5077395;28;20085;-75
2021/06/03 04:47:47;;;;;;;7.90;5.32;;;;;;;15.75;69.88;101984.03;5072814;28;20052;-76
2021/06/03 04:50:16;;;;;;;10.43;5.53;;;;;;;15.77;69.47;101990.00;5064770;28;20125;-75
2021/06/03 04:52:42;;;;;;;6.57;5.25;;;;;;;15.83;70.00;101995.69;5075698;28;20032;-75
2021/06/03 04:55:13;;;;;;;6.35;4.93;;;;;;;15.84;69.37;101994.69;5075906;28;20109;-76
2021/06/03 04:57:40;;;;;;;8.77;5.20;;;;;;;15.89;70.02;102001.19;5069399;28;20131;-75
2021/06/03 05:00:12;;;;;;;7.63;5.57;;;;;;;15.89;69.13;101992.44;5081385;28;20031;-76
2021/06/03 05:02:38;;;;;;;;;;;;;;;15.96;69.25;101999.63;5079211;28;20192;-77
2021/06/03 05:05:05;;;;;;;8.00;5.45;;;;;;;16.00;69.38;102008.09;5068446;28;20425;-76
2021/06/03 05:07:31;;;;;;;8.80;5.13;;;;;;;16.00;68.61;102007.25;5084347;28;20035;-76
2021/06/03 05:09:56;;;;;;;8.38;5.18;;;;;;;16.02;69.39;102008.75;5066968;28;20048;-76
2021/06/03 05:12:22;;;;;;;6.78;4.97;;;;;;;16.09;69.93;102006.34;5072355;28;20029;-74
2021/06/03 05:14:47;;;;;;;7.03;5.47;;;;;;;16.10;69.21;102008.81;5069631;28;20032;-76
2021/06/03 05:17:13;;;;;;;6.47;5.30;;;;;;;16.11;68.45;102009.69;5049996;28;20112;-76
2021/06/03 05:19:39;;;;;;;8.25;5.50;;;;;;;16.11;68.90;102009.69;5066804;28;20036;-76
2021/06/03 05:22:06;;;;;;;8.50;5.10;;;;;;;16.17;69.05;102005.59;5067894;28;20652;-76
2021/06/03 05:24:33;;;;;;;9.50;5.20;;;;;;;16.20;68.74;101998.19;5065827;28;20063;-75
2021/06/03 05:26:59;;;;;;;9.80;5.45;;;;;;;16.29;67.90;102001.69;5068543;28;20035;-76
2021/06/03 05:29:25;;;;;;;9.23;5.05;;;;;;;16.34;68.10;101999.44;5064682;28;20041;-76
2021/06/03 05:31:52;;;;;;;8.73;4.82;;;;;;;16.33;68.06;101997.75;5067803;28;20028;-76
2021/06/03 05:34:19;;;;;;;9.07;5.32;;;;;;;16.34;67.82;102007.38;5057255;28;20051;-76
2021/06/03 05:36:46;;;;;;;7.78;5.30;;;;;;;16.34;68.26;102010.84;5070188;28;20028;-76
2021/06/03 05:39:12;;;;;;;10.52;5.32;;;;;;;16.39;68.39;102017.50;5071624;28;20052;-75
2021/06/03 05:41:38;;;;;;;8.15;5.15;;;;;;;16.45;68.16;102011.59;5082983;28;20498;-76
2021/06/03 05:44:09;;;;;;;11.52;5.07;;;;;;;16.49;68.83;102005.84;5075512;28;20035;-78
2021/06/03 05:46:35;;;;;;;7.03;5.38;;;;;;;16.54;68.13;102008.84;5067846;28;20028;-75
2021/06/03 05:49:02;;;;;;;7.15;4.80;;;;;;;16.63;68.94;102015.06;5066001;28;20042;-74
2021/06/03 05:51:29;;;;;;;7.60;5.07;;;;;;;16.61;67.38;102011.69;5070328;28;20107;-75
2021/06/03 05:53:55;;;;;;;8.93;5.50;;;;;;;16.66;67.41;102016.53;5066634;28;20031;-76
2021/06/03 05:56:22;;;;;;;7.35;5.68;;;;;;;16.73;67.25;102017.59;5067075;28;20024;-75
2021/06/03 05:58:47;;;;;;;10.48;5.55;;;;;;;16.73;66.82;102015.75;5068341;28;20036;-75
2021/06/03 06:01:13;;;;;;;10.38;5.63;;;;;;;16.84;66.69;102012.06;5064861;28;20029;-76
2021/06/03 06:03:46;;;;;;;7.50;5.38;;;;;;;16.85;66.24;102011.06;5065172;28;20147;-75
2021/06/03 06:06:24;;;;;;;;;;;;;;;16.95;68.01;102018.88;5067550;28;20402;-76
2021/06/03 06:08:54;;;;;;;7.28;5.20;;;;;;;17.04;66.80;102019.78;5065722;28;19920;-75
2021/06/03 06:11:21;;;;;;;8.30;5.40;;;;;;;17.10;66.22;102020.00;5048376;28;20051;-75
2021/06/03 06:13:47;;;;;;;6.72;5.45;;;;;;;17.15;66.74;102016.03;5067372;28;20107;-75
2021/06/03 06:16:14;;;;;;;8.55;5.05;;;;;;;17.27;65.19;102020.88;5049755;28;20035;-75
2021/06/03 06:18:41;;;;;;;7.80;5.47;;;;;;;17.29;64.73;102015.41;5067842;28;20118;-76
2021/06/03 06:21:08;;;;;;;8.15;5.00;;;;;;;17.28;64.31;102021.72;5065836;28;20173;-76
2021/06/03 06:23:39;;;;;;;6.97;5.25;;;;;;;17.34;65.66;102018.41;5068600;28;20145;-76
2021/06/03 06:26:06;;;;;;;9.07;4.82;;;;;;;17.43;65.45;102020.09;5068091;28;20051;-75
2021/06/03 06:28:33;;;;;;;7.35;4.85;;;;;;;17.35;65.65;102025.38;5067148;28;20043;-75
2021/06/03 06:30:59;;;;;;;11.13;5.20;;;;;;;17.45;65.61;102023.44;5065372;28;20051;-76
2021/06/03 06:33:24;;;;;;;6.13;5.07;;;;;;;17.49;65.98;102039.84;5065436;28;20036;-76
2021/06/03 06:35:51;;;;;;;9.70;5.53;;;;;;;17.58;65.51;102038.88;5071681;28;20055;-75
2021/06/03 06:38:18;;;;;;;6.57;4.97;;;;;;;17.59;65.33;102048.50;5071763;28;20033;-76
2021/06/03 06:40:44;;;;;;;13.45;5.47;;;;;;;17.62;66.22;102047.38;5068860;28;20044;-75
2021/06/03 06:43:10;;;;;;;14.63;5.45;;;;;;;17.69;64.88;102043.06;5072447;28;20133;-77
2021/06/03 06:45:37;;;;;;;8.75;5.10;;;;;;;17.73;65.60;102048.91;5070830;28;20032;-75
2021/06/03 06:48:05;;;;;;;8.98;5.20;;;;;;;17.69;66.45;102043.91;5068753;28;20032;-74
2021/06/03 06:50:31;;;;;;;9.77;5.18;;;;;;;17.79;66.00;102051.72;5068573;28;20052;-75
2021/06/03 06:52:57;;;;;;;8.50;5.15;;;;;;;17.72;65.27;102048.03;5070168;28;20033;-76
2021/06/03 06:55:22;;;;;;;12.73;5.00;;;;;;;17.78;65.67;102052.72;5070077;28;20072;-75
2021/06/03 06:57:51;;;;;;;6.45;4.93;;;;;;;17.98;65.82;102050.63;5068325;28;20498;-76
2021/06/03 07:00:17;;;;;;;9.68;4.90;;;;;;;18.02;63.77;102054.59;5070081;28;20032;-75
2021/06/03 07:02:42;;;;;;;8.85;4.85;;;;;;;18.01;64.41;102062.75;5071286;28;20086;-74
2021/06/03 07:05:10;;;;;;;9.05;4.85;;;;;;;18.11;65.46;102060.75;5064059;28;20044;-75
2021/06/03 07:07:37;;;;;;;7.63;4.82;;;;;;;18.26;65.32;102066.25;5067241;28;20086;-76
2021/06/03 07:10:05;;;;;;;7.38;4.78;;;;;;;18.55;64.72;102071.06;5069989;28;20040;-76
2021/06/03 07:12:30;;;;;;;9.70;5.13;;;;;;;18.73;63.48;102068.22;5069285;28;20031;-75
2021/06/03 07:14:56;;;;;;;7.20;5.10;;;;;;;18.84;63.93;102075.88;5069433;28;20044;-75
2021/06/03 07:17:21;;;;;;;7.22;5.13;;;;;;;18.98;63.17;102074.34;5071635;28;20109;-75
2021/06/03 07:19:47;;;;;;;6.30;4.95;;;;;;;19.11;62.89;102070.34;5068799;28;20199;-75
2021/06/03 07:22:13;;;;;;;7.47;4.63;;;;;;;19.28;63.39;102074.59;5056830;28;20044;-75
2021/06/03 07:24:40;;;;;;;9.00;4.97;;;;;;;19.45;61.12;102073.53;5067972;28;20048;-75
2021/06/03 07:27:07;;;;;;;8.07;4.55;;;;;;;19.67;60.75;102064.97;5071535;28;20032;-75
2021/06/03 07:29:32;;;;;;;10.35;5.15;;;;;;;19.96;60.02;102066.97;5056214;28;20086;-75
2021/06/03 07:31:58;;;;;;;6.47;4.45;;;;;;;20.19;59.53;102061.66;5074288;28;20040;-76
2021/06/03 07:34:25;;;;;;;8.75;4.78;;;;;;;20.40;57.96;102061.84;5071959;28;20039;-76
2021/06/03 07:36:50;;;;;;;6.55;4.60;;;;;;;20.25;58.26;102060.13;5055344;28;20116;-74
2021/06/03 07:39:16;;;;;;;7.88;4.70;;;;;;;20.33;58.29;102060.06;5069269;28;20179;-75
2021/06/03 07:41:41;;;;;;;6.93;4.68;;;;;;;20.52;57.05;102053.41;5071598;28;20473;-75
2021/06/03 07:44:07;;;;;;;5.13;4.18;;;;;;;20.50;58.07;102050.91;5069505;28;20472;-75
2021/06/03 07:46:33;;;;;;;4.93;4.22;;;;;;;20.60;57.45;102048.03;5070652;28;20032;-76
2021/06/03 07:48:59;;;;;;;8.13;4.15;;;;;;;20.81;57.27;102057.97;5067478;28;20051;-76
2021/06/03 07:51:26;;;;;;;5.35;3.90;;;;;;;21.17;58.31;102057.25;5067915;28;20110;-75
2021/06/03 07:53:52;;;;;;;10.52;4.75;;;;;;;21.20;56.46;102054.22;5069010;28;20720;-76
2021/06/03 07:56:17;;;;;;;8.32;4.15;;;;;;;21.27;57.57;102060.47;5069154;28;20039;-76
2021/06/03 07:58:43;;;;;;;6.22;4.07;;;;;;;21.23;56.24;102058.34;5068820;28;20116;-76
2021/06/03 08:01:09;;;;;;;6.32;4.25;;;;;;;21.08;56.69;102058.34;5067133;28;20037;-75
2021/06/03 08:03:35;;;;;;;7.43;4.22;;;;;;;20.92;57.73;102054.84;5068272;28;20051;-77
2021/06/03 08:06:00;;;;;;;5.43;4.13;;;;;;;20.79;57.65;102054.66;5060426;28;20037;-75
2021/06/03 08:08:26;;;;;;;7.32;4.75;;;;;;;20.65;58.10;102058.97;5068004;28;20048;-76
2021/06/03 08:10:52;;;;;;;5.60;4.80;;;;;;;20.69;58.65;102051.44;5068158;28;20494;-74
2021/06/03 08:13:18;;;;;;;7.95;4.63;;;;;;;20.67;57.39;102048.13;5069547;28;20040;-76
2021/06/03 08:15:44;;;;;;;7.20;3.83;;;;;;;20.67;57.46;102040.13;5069062;28;20163;-77
2021/06/03 08:18:12;;;;;;;7.18;4.22;;;;;;;20.80;56.92;102043.00;5069455;28;20108;-75
2021/06/03 08:20:45;;;;;;;4.95;4.10;;;;;;;20.92;57.45;102056.69;5065957;28;20036;-74
2021/06/03 08:23:14;;;;;;;5.50;4.35;;;;;;;20.89;59.66;102044.56;5068017;28;20097;-76
2021/06/03 08:25:39;;;;;;;7.22;4.53;;;;;;;21.12;57.55;102044.47;5068809;28;20090;-76
2021/06/03 08:28:05;;;;;;;4.32;3.90;;;;;;;21.61;56.55;102047.56;5069207;28;20025;-74
2021/06/03 08:30:31;;;;;;;4.90;3.72;;;;;;;22.27;57.12;102053.59;5064842;28;20168;-76
2021/06/03 08:32:57;;;;;;;5.57;3.88;;;;;;;22.64;53.81;102054.31;5069670;28;20491;-76
2021/06/03 08:35:24;;;;;;;6.57;4.18;;;;;;;22.72;52.54;102058.69;5066482;28;20032;-76
2021/06/03 08:37:52;;;;;;;6.82;4.13;;;;;;;22.71;52.58;102070.38;5068590;28;20099;-75
2021/06/03 08:40:21;;;;;;;5.80;3.72;;;;;;;22.67;52.36;102055.75;5066069;28;20040;-77
2021/06/03 08:42:50;;;;;;;7.25;3.85;;;;;;;22.79;54.50;102062.19;5067081;28;20486;-75
2021/06/03 08:45:16;;;;;;;6.25;4.25;;;;;;;22.63;52.74;102067.88;5065983;28;20051;-77
2021/06/03 08:47:41;;;;;;;8.88;3.80;;;;;;;22.55;53.64;102064.31;5067235;28;20024;-76
2021/06/03 08:50:08;;;;;;;12.52;3.95;;;;;;;22.45;53.15;102069.19;5048402;28;20457;-76
2021/06/03 08:52:34;;;;;;;9.77;3.88;;;;;;;22.41;53.51;102064.41;5068291;28;20119;-75
2021/06/03 08:55:03;;;;;;;6.90;4.55;;;;;;;22.36;54.09;102059.66;5067428;28;20654;-76
2021/06/03 08:57:29;;;;;;;6.70;4.15;;;;;;;22.23;53.02;102046.97;5068117;28;20035;-76
2021/06/03 08:59:55;;;;;;;6.03;3.67;;;;;;;22.24;53.80;102045.09;5067913;28;20044;-76
2021/06/03 09:02:20;;;;;;;5.38;3.90;;;;;;;22.27;53.45;102050.09;5066711;28;20060;-76
2021/06/03 09:04:46;;;;;;;8.93;4.00;;;;;;;22.47;53.72;102042.22;5066850;28;20083;-76
2021/06/03 09:07:32;;;;;;;8.23;3.90;;;;;;;22.55;53.89;102042.91;5067091;28;20068;-75
2021/06/03 09:10:38;;;;;;;8.00;4.00;;;;;;;22.70;52.22;102045.50;5066249;28;20054;-77
2021/06/03 09:13:22;;;;;;;7.70;4.18;;;;;;;22.81;51.94;102038.78;5065233;28;20533;-75
2021/06/03 09:15:48;;;;;;;13.70;4.85;;;;;;;23.09;52.57;102051.28;5067511;28;20040;-76
2021/06/03 09:18:16;;;;;;;5.60;3.70;;;;;;;23.04;52.60;102049.22;5065445;28;20068;-76
2021/06/03 09:20:44;;;;;;;10.38;4.10;;;;;;;23.15;51.13;102049.69;5066640;28;20111;-76
2021/06/03 09:23:28;;;;;;;5.32;3.65;;;;;;;23.00;50.77;102044.41;5064523;28;20036;-75
2021/06/03 09:25:55;;;;;;;11.07;3.33;;;;;;;23.11;51.75;102038.53;5049535;28;20044;-74
2021/06/03 09:28:22;;;;;;;5.18;3.50;;;;;;;23.25;51.58;102034.91;5065860;28;20040;-75
2021/06/03 09:31:07;;;;;;;4.15;3.20;;;;;;;23.21;51.68;102036.34;5067595;28;20543;-75
2021/06/03 09:33:46;;;;;;;5.32;3.30;;;;;;;22.94;50.17;102033.50;5059480;28;20089;-75
2021/06/03 09:36:25;;;;;;;7.97;3.47;;;;;;;22.94;51.90;102035.34;5065012;28;20059;-75
2021/06/03 09:39:23;;;;;;;6.03;3.67;;;;;;;22.89;50.60;102046.63;5065168;28;20032;-75
2021/06/03 09:42:02;;;;;;;5.20;3.10;;;;;;;22.71;50.29;102047.13;5032410;28;20059;-76
2021/06/03 09:44:50;;;;;;;5.07;3.55;;;;;;;22.55;51.94;102048.25;5062979;28;20415;-76
2021/06/03 09:47:21;;;;;;;7.15;3.50;;;;;;;22.43;52.32;102049.00;5051510;28;20040;-75
2021/06/03 09:49:58;;;;;;;10.48;3.40;;;;;;;22.33;52.39;102052.00;5065875;28;20105;-75
2021/06/03 09:52:25;;;;;;;7.72;3.40;;;;;;;22.24;50.77;102064.63;5067450;28;20052;-75
2021/06/03 09:54:53;;;;;;;5.63;3.55;;;;;;;22.19;51.92;102063.56;5066582;28;20119;-76
2021/06/03 09:57:19;;;;;;;8.52;3.60;;;;;;;22.03;51.45;102062.78;5067373;28;20044;-75
2021/06/03 09:59:47;;;;;;;10.55;3.47;;;;;;;21.99;52.26;102060.72;5066314;28;20040;-75
2021/06/03 10:02:14;;;;;;;9.02;3.67;;;;;;;21.99;51.65;102055.34;5066868;28;20064;-75
2021/06/03 10:04:43;;;;;;;11.25;3.78;;;;;;;21.97;51.51;102060.88;5074102;28;20032;-76
2021/06/03 10:07:11;;;;;;;8.30;3.45;;;;;;;21.95;52.22;102062.94;5049130;28;20515;-75
2021/06/03 10:10:04;;;;;;;4.03;3.60;;;;;;;21.94;54.22;102067.44;5070116;28;20047;-75
2021/06/03 10:12:33;;;;;;;9.77;4.00;;;;;;;22.00;52.64;102067.69;5071192;28;20036;-74
2021/06/03 10:15:21;;;;;;;11.38;3.92;;;;;;;22.00;52.60;102065.88;5070818;28;20110;-75
2021/06/03 10:17:52;;;;;;;7.40;2.95;;;;;;;22.09;50.95;102072.72;5069755;28;20490;-76
2021/06/03 10:20:23;;;;;;;5.93;3.10;;;;;;;22.08;50.60;102072.91;5069684;28;20453;-77
2021/06/03 10:22:51;;;;;;;5.25;2.80;;;;;;;22.09;49.59;102070.03;5071311;28;20044;-77
2021/06/03 10:25:18;;;;;;;3.58;3.10;;;;;;;22.11;48.66;102072.53;5070206;28;20040;-76
2021/06/03 10:27:55;;;;;;;5.43;3.10;;;;;;;22.18;49.07;102068.06;5071288;28;20036;-76
2021/06/03 10:30:30;;;;;;;5.85;3.20;;;;;;;22.20;48.45;102071.38;5068247;28;20123;-75
2021/06/03 10:32:59;;;;;;;5.13;3.30;;;;;;;22.14;50.45;102075.66;5068027;28;20414;-76
2021/06/03 10:35:29;;;;;;;6.80;3.17;;;;;;;22.16;52.67;102081.63;5077183;28;20032;-76
2021/06/03 10:37:56;;;;;;;4.43;2.80;;;;;;;22.26;49.08;102077.84;5069880;28;20033;-77
2021/06/03 10:40:28;;;;;;;6.25;2.97;;;;;;;22.40;52.48;102086.81;5069591;28;20599;-77
2021/06/03 10:42:55;;;;;;;4.40;3.03;;;;;;;22.40;49.91;102076.13;5046157;28;20032;-76
2021/06/03 10:45:23;;;;;;;7.25;3.40;;;;;;;22.44;50.12;102086.22;5053725;28;20043;-77
2021/06/03 10:47:49;;;;;;;6.00;2.88;;;;;;;22.47;50.45;102080.50;5068482;28;20124;-75
2021/06/03 10:50:19;;;;;;;4.00;3.17;;;;;;;22.53;49.81;102082.41;5069519;28;20081;-76
2021/06/03 10:52:47;;;;;;;5.32;3.38;;;;;;;22.53;50.72;102092.28;5070926;28;20037;-75
2021/06/03 10:55:31;;;;;;;6.78;3.38;;;;;;;22.57;50.88;102093.53;5071451;28;20028;-75
2021/06/03 10:58:02;;;;;;;4.88;3.15;;;;;;;22.55;49.68;102099.06;5071700;28;20039;-77
2021/06/03 11:00:31;;;;;;;4.53;3.30;;;;;;;22.58;52.07;102105.88;5051607;28;20040;-76
2021/06/03 11:03:04;;;;;;;4.05;2.85;;;;;;;22.67;53.65;102106.56;5069781;28;20044;-76
2021/06/03 11:05:34;;;;;;;3.30;3.00;;;;;;;22.72;50.06;102109.50;5077968;28;20119;-77
2021/06/03 11:08:25;;;;;;;4.07;3.40;;;;;;;22.80;52.20;102105.84;5070249;28;20558;-76
2021/06/03 11:10:52;;;;;;;6.55;3.30;;;;;;;22.82;51.71;102109.97;5069971;28;20041;-75
2021/06/03 11:13:22;;;;;;;7.53;3.45;;;;;;;22.82;50.17;102109.97;5068607;28;20036;-76
2021/06/03 11:16:06;;;;;;;7.22;3.72;;;;;;;22.73;52.38;102098.59;5067702;28;20036;-75
2021/06/03 11:18:52;;;;;;;5.60;3.40;;;;;;;22.67;50.83;102107.38;5062108;28;20410;-75
2021/06/03 11:24:05;;;;;;;6.57;3.35;;;;;;;22.40;51.81;102106.34;5069819;28;20044;-75
2021/06/03 11:26:37;;;;;;;5.70;3.55;;;;;;;22.34;53.38;102115.13;5069489;28;20064;-75
2021/06/03 11:29:30;;;;;;;7.53;3.40;;;;;;;22.21;53.30;102113.13;5069314;28;20045;-75
2021/06/03 11:32:02;;;;;;;6.85;3.85;;;;;;;22.20;54.67;102110.66;5064594;28;20132;-76
2021/06/03 11:34:40;;;;;;;6.00;3.63;;;;;;;22.16;54.63;102120.88;5035267;28;20044;-76